Time;durP1;ratioP1;P1;durP2;ratioP2;P2;SDS_P1;SDS_P2;PMS_P1;PMS_P2;Temp;Humidity;BMP_temperature;BMP_pressure;BME280_temperature;BME280_humidity;BME280_pressure;Samples;Min_cycle;Max_cycle;Signal;HPM_P1;HPM_P2
2022/11/04 00:01:48;;;;;;;19.73;15.13;;;14.40;67.30;;;;;;5044672;28;20464;-91
2022/11/04 00:04:19;;;;;;;24.70;16.40;;;14.50;66.80;;;;;;5050644;28;20456;-89
2022/11/04 00:06:47;;;;;;;16.90;13.53;;;14.60;66.20;;;;;;5083102;28;21111;-89
2022/11/04 00:09:18;;;;;;;19.47;13.50;;;14.50;66.60;;;;;;5067402;28;20471;-91
2022/11/04 00:14:31;;;;;;;28.93;14.90;;;14.40;66.90;;;;;;5082154;28;20439;-90
2022/11/04 00:30:48;;;;;;;19.17;8.87;;;14.20;69.20;;;;;;5068865;28;20471;-91
2022/11/04 00:33:26;;;;;;;10.80;7.83;;;14.20;69.30;;;;;;5085304;28;20812;-90
2022/11/04 00:35:56;;;;;;;17.43;9.10;;;14.30;69.30;;;;;;5059552;28;20439;-91
2022/11/04 00:38:24;;;;;;;14.77;9.70;;;14.30;69.60;;;;;;5065996;28;20439;-93
2022/11/04 00:40:52;;;;;;;32.77;20.47;;;14.30;69.60;;;;;;5102787;28;20463;-91
2022/11/04 00:43:19;;;;;;;16.97;11.60;;;14.50;69.10;;;;;;5090265;28;20457;-90
2022/11/04 00:45:46;;;;;;;21.73;12.97;;;14.60;68.50;;;;;;5064287;28;20455;-93
2022/11/04 00:48:14;;;;;;;17.00;11.27;;;14.80;68.10;;;;;;5071302;28;20446;-88
2022/11/04 00:50:42;;;;;;;18.23;10.90;;;14.80;67.50;;;;;;5064249;28;20887;-91
2022/11/04 00:53:10;;;;;;;14.27;8.60;;;15.00;67.00;;;;;;5082429;28;20471;-91
2022/11/04 00:55:37;;;;;;;31.77;16.30;;;15.00;66.60;;;;;;5100762;28;20439;-90
2022/11/04 00:58:04;;;;;;;32.97;18.30;;;15.10;66.50;;;;;;5086755;28;20451;-93
2022/11/04 01:00:31;;;;;;;30.90;18.30;;;15.20;66.10;;;;;;5087003;28;20467;-91
2022/11/04 01:03:00;;;;;;;35.53;16.70;;;15.10;66.00;;;;;;5097284;28;20971;-90
2022/11/04 01:05:27;;;;;;;21.33;11.60;;;15.00;66.40;;;;;;5061424;28;20470;-91
2022/11/04 01:07:54;;;;;;;14.10;9.83;;;14.90;66.50;;;;;;5068711;28;20453;-91
2022/11/04 01:10:22;;;;;;;18.70;11.93;;;15.00;66.00;;;;;;5053505;28;20479;-92
2022/11/04 01:12:52;;;;;;;27.70;14.97;;;15.00;65.90;;;;;;5051084;28;20431;-92
2022/11/04 01:15:19;;;;;;;21.63;12.00;;;14.80;66.70;;;;;;5044560;28;20451;-91
2022/11/04 01:17:46;;;;;;;7.03;5.17;;;14.90;66.50;;;;;;5076179;28;20912;-90
2022/11/04 01:20:13;;;;;;;5.30;4.47;;;14.90;66.70;;;;;;5087565;28;20459;-91
2022/11/04 01:22:41;;;;;;;12.40;8.00;;;14.80;66.40;;;;;;5090462;28;20474;-91
2022/11/04 01:25:09;;;;;;;4.77;4.27;;;14.90;66.50;;;;;;5071683;28;20461;-91
2022/11/04 01:27:38;;;;;;;7.03;4.40;;;15.00;66.50;;;;;;5093190;28;20451;-90
2022/11/04 01:30:06;;;;;;;6.50;3.00;;;14.80;66.90;;;;;;5068448;28;20468;-90
2022/11/04 01:32:33;;;;;;;3.60;3.30;;;14.70;67.00;;;;;;5060215;28;20455;-91
2022/11/04 01:35:01;;;;;;;4.70;2.77;;;14.80;66.50;;;;;;5044562;28;20788;-90
2022/11/04 01:37:28;;;;;;;3.30;3.00;;;14.80;66.70;;;;;;5061524;28;20517;-91
2022/11/04 01:39:55;;;;;;;3.00;2.20;;;14.80;66.90;;;;;;5071959;28;20471;-90
2022/11/04 01:42:22;;;;;;;2.63;2.40;;;14.70;66.10;;;;;;5090412;28;20474;-91
2022/11/04 01:44:54;;;;;;;3.60;2.80;;;14.80;66.40;;;;;;5078684;28;20917;-91
2022/11/04 01:47:26;;;;;;;2.60;2.27;;;14.80;66.40;;;;;;5067491;28;20451;-91
2022/11/04 01:49:58;;;;;;;3.83;2.30;;;14.80;66.40;;;;;;5076450;28;20830;-91
2022/11/04 01:52:31;;;;;;;3.07;2.73;;;14.70;66.30;;;;;;5073558;28;20436;-91
2022/11/04 01:55:03;;;;;;;2.33;1.93;;;14.50;67.00;;;;;;5070948;27;20967;-92
2022/11/04 01:57:34;;;;;;;3.00;2.70;;;14.70;66.70;;;;;;5075451;28;20584;-90
2022/11/04 02:00:06;;;;;;;2.70;2.50;;;14.80;66.40;;;;;;5072705;28;20472;-89
2022/11/04 02:02:46;;;;;;;2.13;1.93;;;14.80;66.70;;;;;;5085604;28;20510;-93
2022/11/04 02:05:13;;;;;;;3.53;3.03;;;14.80;66.00;;;;;;5074688;28;21898;-90
2022/11/04 02:07:40;;;;;;;2.13;1.93;;;14.90;65.70;;;;;;5077429;28;20504;-90
2022/11/04 02:10:08;;;;;;;3.03;2.07;;;14.80;65.80;;;;;;5050615;28;21016;-92
2022/11/04 02:12:49;;;;;;;2.93;2.73;;;14.90;66.60;;;;;;5069830;28;20454;-91
2022/11/04 02:15:26;;;;;;;2.10;1.80;;;15.00;65.80;;;;;;5085434;28;20438;-91
2022/11/04 02:18:29;;;;;;;3.40;1.83;;;15.00;65.40;;;;;;5064276;28;20446;-91
2022/11/04 02:21:31;;;;;;;3.10;1.73;;;14.80;65.50;;;;;;5017559;28;20926;-91
2022/11/04 02:24:26;;;;;;;3.00;1.80;;;14.80;65.40;;;;;;5030795;28;20451;-90
2022/11/04 02:27:21;;;;;;;1.87;1.73;;;14.90;65.10;;;;;;5074460;27;20447;-91
2022/11/04 02:30:12;;;;;;;3.07;2.00;;;15.00;64.60;;;;;;5058214;28;20475;-92
2022/11/04 02:33:11;;;;;;;2.73;1.73;;;14.80;65.40;;;;;;5051565;28;20871;-90
2022/11/04 02:35:50;;;;;;;1.70;1.60;;;14.70;65.50;;;;;;5045599;28;20463;-91
2022/11/04 02:38:27;;;;;;;1.50;1.40;;;14.90;65.10;;;;;;5050303;28;20441;-91
2022/11/04 02:41:04;;;;;;;5.03;1.47;;;15.00;64.70;;;;;;5067980;28;20542;-93
2022/11/04 02:43:41;;;;;;;3.57;1.30;;;15.00;63.80;;;;;;5065280;28;20479;-91
2022/11/04 02:46:16;;;;;;;1.57;1.47;;;15.10;64.20;;;;;;5069856;28;20943;-91
2022/11/04 02:48:47;;;;;;;9.83;6.80;;;15.20;63.70;;;;;;5063593;28;20472;-93
2022/11/04 02:51:20;;;;;;;2.30;2.10;;;15.10;63.60;;;;;;5051278;28;20791;-92
2022/11/04 02:53:54;;;;;;;2.00;1.30;;;15.10;63.80;;;;;;5072125;28;20452;-91
2022/11/04 02:56:22;;;;;;;1.43;1.33;;;15.30;63.40;;;;;;5055892;28;20966;-92
2022/11/04 02:58:53;;;;;;;1.40;1.30;;;15.30;64.30;;;;;;5066780;28;20766;-93
2022/11/04 03:01:27;;;;;;;1.80;1.70;;;15.40;63.10;;;;;;5064061;28;20789;-89
2022/11/04 03:04:00;;;;;;;1.53;1.43;;;15.40;63.10;;;;;;5079173;28;20469;-91
2022/11/04 03:06:28;;;;;;;1.60;1.50;;;15.30;62.80;;;;;;5099029;27;20435;-92
2022/11/04 03:08:57;;;;;;;1.77;1.60;;;15.30;63.10;;;;;;5071690;28;20459;-91
2022/11/04 03:11:27;;;;;;;1.40;1.27;;;15.20;63.00;;;;;;5079635;28;21041;-93
2022/11/04 03:13:59;;;;;;;1.67;1.57;;;15.00;64.00;;;;;;5067219;28;20482;-90
2022/11/04 03:16:32;;;;;;;1.40;1.30;;;14.80;63.70;;;;;;5056240;27;20440;-91
2022/11/04 03:19:04;;;;;;;2.00;1.80;;;15.00;63.60;;;;;;5058336;28;20496;-91
2022/11/04 03:21:35;;;;;;;1.80;1.67;;;15.20;63.50;;;;;;5069068;28;20431;-90
2022/11/04 03:24:04;;;;;;;1.97;1.77;;;15.30;63.20;;;;;;5083070;28;20944;-91
2022/11/04 03:26:35;;;;;;;1.63;1.50;;;15.40;62.50;;;;;;5078582;28;20443;-90
2022/11/04 03:29:15;;;;;;;1.77;1.67;;;15.50;62.10;;;;;;5087391;28;20472;-90
2022/11/04 03:31:48;;;;;;;3.20;2.90;;;15.20;61.60;;;;;;5104513;27;20663;-89
2022/11/04 03:34:16;;;;;;;2.47;2.27;;;15.30;62.50;;;;;;5079252;28;20493;-91
2022/11/04 03:36:43;;;;;;;1.80;1.70;;;15.20;62.30;;;;;;5081558;28;20493;-91
2022/11/04 03:39:10;;;;;;;2.10;2.00;;;15.00;63.10;;;;;;5078530;28;20467;-91
2022/11/04 03:41:43;;;;;;;3.50;1.70;;;15.10;63.30;;;;;;5045711;28;20454;-91
2022/11/04 03:44:10;;;;;;;1.87;1.77;;;15.20;63.00;;;;;;5054117;28;20460;-90
2022/11/04 03:46:38;;;;;;;2.40;2.20;;;15.30;62.60;;;;;;5065315;28;20468;-91
2022/11/04 03:49:08;;;;;;;1.67;1.57;;;15.40;62.40;;;;;;5079872;28;20474;-91
2022/11/04 03:51:35;;;;;;;2.97;1.87;;;15.40;62.10;;;;;;5071939;27;20426;-91
2022/11/04 03:54:02;;;;;;;3.00;2.80;;;15.30;61.40;;;;;;5082458;28;20577;-90
2022/11/04 03:57:01;;;;;;;4.00;3.70;;;15.20;62.10;;;;;;5056388;28;20459;-91
2022/11/04 03:59:48;;;;;;;2.13;2.03;;;15.10;62.10;;;;;;5065619;28;20463;-92
2022/11/04 04:02:20;;;;;;;3.90;1.70;;;14.80;61.40;;;;;;5065532;28;20612;-92
2022/11/04 04:04:56;;;;;;;1.70;1.60;;;14.50;61.70;;;;;;5054880;28;20474;-90
2022/11/04 04:07:31;;;;;;;1.40;1.30;;;14.40;62.70;;;;;;5083768;28;20457;-90
2022/11/04 04:10:37;;;;;;;2.70;2.07;;;14.40;62.30;;;;;;5075358;28;20470;-91
2022/11/04 04:12:58;;;;;;;11.37;4.80;;;14.50;63.20;;;;;;5045817;28;20466;-87
2022/11/04 04:15:30;;;;;;;11.37;5.30;;;14.70;62.30;;;;;;5062517;28;20471;-91
2022/11/04 04:18:02;;;;;;;5.47;3.47;;;14.60;61.10;;;;;;5093626;28;20444;-90
2022/11/04 04:20:33;;;;;;;9.43;5.20;;;14.70;61.30;;;;;;5051314;28;20650;-89
2022/11/04 04:27:29;;;;;;;2.03;1.87;;;14.80;61.10;;;;;;5078184;28;20557;-91
2022/11/04 04:28:41;;;;;;;21.07;8.67;;;14.70;60.70;;;;;;5083947;28;20435;-91
2022/11/04 04:31:11;;;;;;;3.13;2.47;;;14.60;60.80;;;;;;5069843;28;20451;-90
2022/11/04 04:33:38;;;;;;;15.20;6.70;;;14.70;60.00;;;;;;5063925;28;20639;-91
2022/11/04 04:36:09;;;;;;;11.70;6.00;;;14.80;60.30;;;;;;5082788;28;20494;-91
2022/11/04 04:47:22;;;;;;;3.30;2.60;;;15.40;59.80;;;;;;5020039;28;20500;-90
2022/11/04 04:49:51;;;;;;;2.30;2.03;;;15.40;59.60;;;;;;4985942;28;20508;-91
2022/11/04 04:52:21;;;;;;;2.80;2.60;;;15.50;59.50;;;;;;5047738;28;20451;-92
2022/11/04 04:54:48;;;;;;;2.13;1.93;;;15.50;59.00;;;;;;5073615;27;20456;-93
2022/11/04 04:57:16;;;;;;;2.20;1.90;;;15.30;59.00;;;;;;5055011;28;20455;-91
2022/11/04 04:59:43;;;;;;;6.43;4.30;;;15.30;59.20;;;;;;5067142;28;21008;-89
2022/11/04 05:02:10;;;;;;;172.90;90.70;;;15.00;59.60;;;;;;5079776;28;20450;-90
2022/11/04 05:04:37;;;;;;;56.10;26.87;;;14.50;60.90;;;;;;5106263;28;20502;-91
2022/11/04 05:07:05;;;;;;;138.27;69.93;;;14.40;61.20;;;;;;5064488;28;20528;-91
2022/11/04 05:09:34;;;;;;;22.47;12.07;;;14.30;61.70;;;;;;5085737;28;20495;-89
2022/11/04 05:12:01;;;;;;;16.60;9.53;;;14.00;61.90;;;;;;5096879;27;20455;-87
2022/11/04 05:14:29;;;;;;;9.33;6.97;;;13.80;62.40;;;;;;5055270;28;21092;-90
2022/11/04 05:16:56;;;;;;;8.93;6.63;;;13.90;62.10;;;;;;5053495;27;20443;-89
2022/11/04 05:19:23;;;;;;;10.53;8.70;;;14.00;62.20;;;;;;5078600;28;20549;-88
2022/11/04 05:21:50;;;;;;;7.13;6.40;;;14.20;61.50;;;;;;5097363;27;20529;-91
2022/11/04 05:24:17;;;;;;;5.80;3.87;;;14.20;61.70;;;;;;5074814;28;20573;-91
2022/11/04 05:26:45;;;;;;;3.90;3.57;;;14.40;60.90;;;;;;5079502;28;21070;-90
2022/11/04 05:29:12;;;;;;;3.13;2.67;;;14.30;60.40;;;;;;5091171;27;21126;-92
2022/11/04 05:31:40;;;;;;;2.93;2.37;;;14.60;60.30;;;;;;5086279;28;20539;-91
2022/11/04 05:34:07;;;;;;;3.50;2.43;;;14.70;59.90;;;;;;5086674;28;20447;-89
2022/11/04 05:36:34;;;;;;;6.07;2.77;;;14.80;59.70;;;;;;5084221;28;20888;-90
2022/11/04 05:39:01;;;;;;;3.00;2.70;;;14.90;59.50;;;;;;5099917;27;20561;-90
2022/11/04 05:41:28;;;;;;;3.13;2.90;;;15.00;59.10;;;;;;5098516;28;20446;-88
2022/11/04 05:43:58;;;;;;;8.30;5.30;;;15.00;58.80;;;;;;5094769;27;20475;-89
2022/11/04 05:46:26;;;;;;;3.57;2.10;;;15.10;58.50;;;;;;5075938;28;20430;-90
2022/11/04 05:48:53;;;;;;;2.17;2.07;;;15.00;58.20;;;;;;5093906;28;20536;-89
2022/11/04 05:51:22;;;;;;;3.00;1.80;;;14.90;58.20;;;;;;5099453;28;20455;-90
2022/11/04 05:53:50;;;;;;;5.03;2.37;;;14.90;58.40;;;;;;5096587;28;20454;-89
2022/11/04 05:56:17;;;;;;;3.93;2.43;;;14.90;58.40;;;;;;5076236;28;20455;-86
2022/11/04 05:58:44;;;;;;;4.40;4.00;;;15.00;58.10;;;;;;5096306;28;20724;-90
2022/11/04 06:01:22;;;;;;;7.30;3.60;;;15.00;58.10;;;;;;5072332;28;21042;-90
2022/11/04 06:03:49;;;;;;;9.13;6.63;;;14.90;58.80;;;;;;5080491;28;20464;-89
2022/11/04 06:06:16;;;;;;;5.40;4.13;;;15.00;58.20;;;;;;5098653;28;20447;-88
2022/11/04 06:08:43;;;;;;;11.03;8.20;;;14.80;58.30;;;;;;5083455;28;20440;-89
2022/11/04 06:11:10;;;;;;;14.43;9.40;;;14.60;58.10;;;;;;5077815;28;20455;-90
2022/11/04 06:13:37;;;;;;;12.07;8.90;;;14.70;58.00;;;;;;5057648;28;20455;-89
2022/11/04 06:16:05;;;;;;;11.30;7.67;;;14.70;58.20;;;;;;5096454;28;20519;-90
2022/11/04 06:18:33;;;;;;;12.83;7.00;;;14.80;58.00;;;;;;5067414;28;20470;-90
2022/11/04 06:21:20;;;;;;;8.47;4.83;;;14.80;58.00;;;;;;5065583;28;20480;-90
2022/11/04 06:23:47;;;;;;;4.77;3.17;;;15.00;58.10;;;;;;5072598;28;20471;-88
2022/11/04 06:26:14;;;;;;;5.53;2.27;;;15.00;57.90;;;;;;5056419;28;20552;-90
2022/11/04 06:28:41;;;;;;;3.40;2.07;;;15.10;57.70;;;;;;5075596;28;20455;-89
2022/11/04 06:31:11;;;;;;;3.00;1.80;;;15.10;57.70;;;;;;5075048;28;20464;-90
2022/11/04 06:33:40;;;;;;;1.63;1.53;;;15.00;57.40;;;;;;5080982;28;20459;-89
2022/11/04 06:36:10;;;;;;;3.00;1.80;;;15.10;57.50;;;;;;5094674;28;20830;-88
2022/11/04 06:38:38;;;;;;;3.80;1.70;;;15.10;57.40;;;;;;5076225;28;20462;-89
2022/11/04 06:41:06;;;;;;;2.33;1.83;;;15.10;57.20;;;;;;5078487;28;20467;-90
2022/11/04 06:43:33;;;;;;;3.10;1.70;;;15.00;57.30;;;;;;5096114;28;20456;-90
2022/11/04 06:46:01;;;;;;;1.90;1.70;;;14.90;57.10;;;;;;5024469;28;1188702;-88
2022/11/04 06:48:29;;;;;;;4.30;2.67;;;14.90;57.40;;;;;;5075073;28;20195;-89
2022/11/04 06:50:58;;;;;;;2.43;1.97;;;14.70;57.70;;;;;;5094268;27;20470;-90
2022/11/04 06:53:26;;;;;;;1.87;1.77;;;14.70;57.80;;;;;;5082891;28;20483;-90
2022/11/04 06:55:53;;;;;;;2.20;2.03;;;14.50;57.90;;;;;;5088121;28;20494;-91
2022/11/04 06:58:20;;;;;;;2.20;2.00;;;14.50;58.10;;;;;;5093471;28;20470;-90
2022/11/04 07:00:52;;;;;;;2.27;2.07;;;14.50;58.10;;;;;;5072759;28;21105;-89
2022/11/04 07:03:19;;;;;;;9.93;3.97;;;14.70;58.60;;;;;;5070486;28;21941;-90
2022/11/04 07:05:46;;;;;;;11.33;5.87;;;14.80;57.80;;;;;;5083716;27;20846;-90
2022/11/04 07:08:15;;;;;;;9.00;3.40;;;14.80;57.40;;;;;;5072625;28;20470;-90
2022/11/04 07:10:42;;;;;;;4.30;2.40;;;14.70;57.30;;;;;;5078144;28;20475;-90
2022/11/04 07:13:09;;;;;;;4.03;1.83;;;14.60;57.30;;;;;;5092259;27;20873;-89
2022/11/04 07:15:38;;;;;;;2.43;2.10;;;14.50;57.70;;;;;;5090543;27;20459;-91
2022/11/04 07:18:06;;;;;;;3.33;1.63;;;14.30;57.80;;;;;;5091833;28;20490;-90
2022/11/04 07:20:33;;;;;;;3.03;1.70;;;14.00;59.00;;;;;;5092407;28;20998;-90
2022/11/04 07:23:00;;;;;;;22.53;2.33;;;13.60;59.90;;;;;;5078371;28;20471;-90
2022/11/04 07:25:28;;;;;;;4.40;2.23;;;13.80;61.00;;;;;;5074566;28;20838;-90
2022/11/04 07:27:55;;;;;;;3.80;2.57;;;13.90;59.80;;;;;;5083672;28;20447;-89
2022/11/04 07:30:23;;;;;;;10.97;5.77;;;13.80;59.90;;;;;;5087925;28;20467;-89
2022/11/04 07:32:49;;;;;;;3.90;3.00;;;13.90;59.80;;;;;;5084867;28;20435;-89
2022/11/04 07:35:17;;;;;;;10.63;9.53;;;13.90;59.80;;;;;;5086909;28;20751;-90
2022/11/04 07:37:44;;;;;;;15.50;9.70;;;14.00;60.10;;;;;;5075429;28;20589;-91
2022/11/04 07:40:11;;;;;;;25.37;19.43;;;14.00;60.30;;;;;;5089955;28;20464;-91
2022/11/04 07:42:40;;;;;;;7.70;7.00;;;13.90;60.10;;;;;;5091243;28;20988;-91
2022/11/04 07:45:09;;;;;;;8.97;8.20;;;14.00;60.30;;;;;;5081462;28;20470;-90
2022/11/04 07:47:36;;;;;;;8.90;8.00;;;14.00;61.10;;;;;;5083131;28;20455;-90
2022/11/04 07:50:05;;;;;;;6.03;4.60;;;13.70;61.10;;;;;;5060972;28;20994;-91
2022/11/04 07:52:32;;;;;;;4.40;4.00;;;13.80;61.00;;;;;;5085168;28;20454;-90
2022/11/04 07:54:59;;;;;;;5.40;4.90;;;14.00;60.80;;;;;;5059819;28;20490;-91
2022/11/04 07:57:26;;;;;;;7.17;4.00;;;14.30;60.80;;;;;;5076697;28;20544;-89
2022/11/04 07:59:54;;;;;;;10.97;4.60;;;14.10;61.10;;;;;;5092826;28;21027;-90
2022/11/04 08:02:21;;;;;;;6.33;4.33;;;14.30;61.20;;;;;;5080795;28;20447;-91
2022/11/04 08:04:49;;;;;;;9.70;5.93;;;14.60;60.90;;;;;;5068217;28;20569;-90
2022/11/04 08:07:16;;;;;;;8.23;5.87;;;14.80;60.30;;;;;;5061880;28;20443;-92
2022/11/04 08:09:44;;;;;;;5.47;4.90;;;15.00;59.80;;;;;;5092205;28;20472;-91
2022/11/04 08:12:11;;;;;;;7.03;5.73;;;15.10;59.40;;;;;;5058401;28;20904;-89
2022/11/04 08:14:38;;;;;;;5.83;5.30;;;15.10;59.00;;;;;;5090348;28;20451;-91
2022/11/04 08:17:06;;;;;;;8.37;4.70;;;15.20;59.00;;;;;;5091019;28;20520;-90
2022/11/04 08:19:33;;;;;;;6.90;4.57;;;15.20;58.90;;;;;;5091117;28;20522;-89
2022/11/04 08:22:00;;;;;;;17.07;4.53;;;15.30;59.00;;;;;;5063308;28;20456;-90
2022/11/04 08:24:27;;;;;;;3.63;3.30;;;15.30;58.50;;;;;;5065971;28;20493;-91
2022/11/04 08:26:54;;;;;;;2.50;1.93;;;15.40;58.40;;;;;;5075210;28;20459;-88
2022/11/04 08:29:22;;;;;;;4.20;2.67;;;15.40;57.90;;;;;;5078025;28;20844;-90
2022/11/04 08:31:49;;;;;;;3.10;2.80;;;15.40;57.80;;;;;;5073319;28;20651;-90
2022/11/04 08:34:18;;;;;;;4.67;4.20;;;15.40;57.90;;;;;;5100196;28;20454;-89
2022/11/04 08:36:45;;;;;;;10.53;5.63;;;15.40;58.20;;;;;;5065671;28;20859;-90
2022/11/04 08:39:13;;;;;;;9.37;6.87;;;15.40;57.90;;;;;;5075626;28;20468;-91
2022/11/04 08:41:44;;;;;;;10.17;6.87;;;15.40;58.20;;;;;;5089288;28;20549;-90
2022/11/04 08:44:13;;;;;;;5.87;5.30;;;15.50;58.30;;;;;;5079795;28;21064;-89
2022/11/04 08:46:42;;;;;;;9.43;7.37;;;15.30;58.20;;;;;;5083209;28;20798;-91
2022/11/04 08:49:09;;;;;;;6.30;3.37;;;15.30;58.70;;;;;;5100209;28;21047;-89
2022/11/04 08:51:40;;;;;;;12.63;7.20;;;15.20;57.40;;;;;;5093157;28;20463;-90
2022/11/04 08:54:07;;;;;;;2.80;1.90;;;15.40;58.10;;;;;;5090610;28;20439;-89
2022/11/04 08:56:35;;;;;;;3.03;1.50;;;15.30;58.10;;;;;;5090615;28;20542;-90
2022/11/04 08:59:03;;;;;;;1.43;1.33;;;15.30;56.60;;;;;;5080598;28;20548;-90
2022/11/04 09:01:32;;;;;;;2.10;1.40;;;15.10;57.20;;;;;;5073372;28;20463;-90
2022/11/04 09:03:59;;;;;;;2.37;1.67;;;14.80;57.10;;;;;;5091316;28;21165;-90
2022/11/04 09:06:30;;;;;;;2.13;1.67;;;14.80;58.20;;;;;;5086580;28;20447;-90
2022/11/04 09:09:03;;;;;;;27.83;11.73;;;15.00;57.60;;;;;;5085665;28;20451;-89
2022/11/04 09:11:31;;;;;;;9.70;4.33;;;14.90;57.40;;;;;;5078912;28;20458;-89
2022/11/04 09:14:00;;;;;;;4.20;1.70;;;15.00;58.10;;;;;;5090429;28;20443;-89
2022/11/04 09:16:28;;;;;;;2.47;1.57;;;15.00;58.30;;;;;;5088598;28;20462;-89
2022/11/04 09:18:57;;;;;;;7.47;2.07;;;15.10;58.40;;;;;;5066268;28;20486;-88
2022/11/04 09:21:25;;;;;;;2.97;2.57;;;15.30;58.10;;;;;;5088178;28;20436;-88
2022/11/04 09:23:52;;;;;;;2.23;1.90;;;15.40;58.50;;;;;;5089393;28;20474;-88
2022/11/04 09:26:22;;;;;;;6.10;2.23;;;15.50;57.60;;;;;;5087827;28;20462;-89
2022/11/04 09:28:54;;;;;;;5.37;2.87;;;15.60;57.30;;;;;;5097698;28;20505;-90
2022/11/04 09:31:21;;;;;;;3.70;2.60;;;15.70;57.10;;;;;;5079747;28;20458;-89
2022/11/04 09:33:48;;;;;;;3.77;2.97;;;15.70;55.60;;;;;;5090393;28;20516;-90
2022/11/04 09:36:15;;;;;;;5.30;3.63;;;15.60;56.70;;;;;;5087969;28;21052;-88
2022/11/04 09:38:43;;;;;;;8.93;2.97;;;15.60;56.70;;;;;;5075819;28;20540;-89
2022/11/04 09:41:33;;;;;;;4.90;4.20;;;15.70;56.60;;;;;;5092757;28;20843;-89
2022/11/04 09:44:09;;;;;;;4.30;3.90;;;15.80;57.00;;;;;;5073826;28;20531;-89
2022/11/04 09:46:37;;;;;;;4.40;1.50;;;15.90;56.30;;;;;;5092915;28;20454;-90
2022/11/04 09:49:06;;;;;;;4.40;1.57;;;16.10;55.90;;;;;;5076480;28;20628;-88
2022/11/04 09:51:34;;;;;;;15.97;3.80;;;16.20;55.90;;;;;;5083896;28;20459;-89
2022/11/04 09:54:04;;;;;;;6.23;2.17;;;16.20;55.90;;;;;;5093221;28;20444;-88
2022/11/04 09:56:37;;;;;;;10.50;5.60;;;16.20;56.10;;;;;;5092982;28;20447;-90
2022/11/04 09:59:06;;;;;;;13.77;3.97;;;16.10;56.20;;;;;;5090283;28;20478;-90
2022/11/04 10:01:40;;;;;;;10.17;4.47;;;16.20;56.20;;;;;;5095835;28;20858;-87
2022/11/04 10:04:21;;;;;;;8.87;2.50;;;16.10;56.50;;;;;;5080152;28;21143;-88
2022/11/04 10:07:04;;;;;;;8.33;5.90;;;15.80;56.40;;;;;;5092557;28;20450;-88
2022/11/04 10:09:43;;;;;;;10.70;5.60;;;15.90;56.40;;;;;;5088692;28;21170;-90
2022/11/04 10:12:21;;;;;;;3.20;1.97;;;15.90;57.00;;;;;;5100891;28;20456;-90
2022/11/04 10:15:08;;;;;;;25.53;12.57;;;16.00;57.10;;;;;;5066671;28;20458;-91
2022/11/04 10:17:51;;;;;;;21.23;8.70;;;15.80;57.80;;;;;;5096635;28;20537;-90
2022/11/04 10:20:29;;;;;;;18.70;10.70;;;15.90;58.10;;;;;;5091616;28;20861;-91
2022/11/04 10:22:58;;;;;;;15.13;9.67;;;15.80;57.30;;;;;;5076332;28;20551;-90
2022/11/04 10:25:33;;;;;;;12.33;8.67;;;15.70;57.50;;;;;;5094270;28;20553;-90
2022/11/04 10:28:03;;;;;;;4.13;1.63;;;15.70;58.00;;;;;;5078205;28;20619;-91
2022/11/04 10:30:30;;;;;;;16.00;10.40;;;15.50;58.50;;;;;;5067797;28;20467;-91
2022/11/04 10:33:09;;;;;;;6.30;4.73;;;15.60;59.00;;;;;;5093771;28;20530;-89
2022/11/04 10:35:40;;;;;;;4.40;3.97;;;15.90;59.40;;;;;;5082603;28;20443;-89
2022/11/04 10:38:17;;;;;;;14.07;6.93;;;15.70;59.40;;;;;;5096957;28;20539;-91
2022/11/04 10:40:48;;;;;;;5.20;2.60;;;15.60;59.50;;;;;;5070955;28;20992;-90
2022/11/04 10:43:22;;;;;;;4.50;2.40;;;15.60;59.40;;;;;;5095023;28;20447;-90
2022/11/04 10:46:02;;;;;;;6.80;2.00;;;15.20;60.40;;;;;;5067641;28;20520;-90
2022/11/04 10:48:35;;;;;;;4.63;2.77;;;15.50;60.60;;;;;;5099804;28;20441;-90
2022/11/04 10:51:03;;;;;;;5.23;2.63;;;15.40;60.80;;;;;;5082232;28;20888;-88
2022/11/04 10:53:32;;;;;;;4.80;1.90;;;15.20;60.80;;;;;;5082465;28;20549;-89
2022/11/04 10:56:06;;;;;;;3.13;2.93;;;15.10;61.00;;;;;;5096360;28;20496;-90
2022/11/04 10:58:42;;;;;;;2.50;1.43;;;15.00;61.70;;;;;;5094795;28;20538;-89
2022/11/04 11:01:28;;;;;;;2.80;1.77;;;15.20;61.60;;;;;;5070183;28;20505;-90
2022/11/04 11:03:56;;;;;;;13.40;8.10;;;15.30;61.30;;;;;;5088456;28;20942;-91
2022/11/04 11:06:27;;;;;;;9.73;4.20;;;15.60;61.20;;;;;;5088736;28;20458;-89
2022/11/04 11:08:57;;;;;;;8.30;6.17;;;15.70;59.80;;;;;;5099127;28;20532;-90
2022/11/04 11:11:44;;;;;;;4.73;2.50;;;15.80;59.60;;;;;;5083876;28;21248;-91
2022/11/04 11:14:31;;;;;;;13.73;6.57;;;16.10;59.10;;;;;;5095779;28;20530;-91
2022/11/04 11:17:14;;;;;;;2.23;1.50;;;15.90;58.60;;;;;;5088875;28;20515;-89
2022/11/04 11:19:45;;;;;;;6.23;1.40;;;16.10;58.90;;;;;;5079856;28;20468;-89
2022/11/04 11:22:32;;;;;;;2.00;1.80;;;16.20;58.70;;;;;;5078253;28;21125;-90
2022/11/04 11:25:25;;;;;;;5.30;2.80;;;16.10;58.40;;;;;;5084022;28;21033;-89
2022/11/04 11:27:54;;;;;;;2.80;1.50;;;16.10;58.60;;;;;;5091037;28;20446;-89
2022/11/04 11:30:27;;;;;;;4.40;3.33;;;16.10;59.00;;;;;;5092431;28;20552;-89
2022/11/04 11:32:57;;;;;;;3.93;2.00;;;16.40;59.30;;;;;;5081561;28;20460;-89
2022/11/04 11:35:30;;;;;;;3.23;2.93;;;16.40;58.90;;;;;;5090846;28;20447;-91
2022/11/04 11:37:58;;;;;;;3.43;1.50;;;16.30;58.60;;;;;;5091279;28;20458;-88
2022/11/04 11:40:33;;;;;;;1.77;1.67;;;16.20;58.80;;;;;;5053024;28;20474;-90
2022/11/04 11:43:01;;;;;;;3.70;1.70;;;16.30;58.60;;;;;;5074466;28;20518;-88
2022/11/04 11:45:31;;;;;;;3.17;2.00;;;16.10;58.90;;;;;;5086938;28;20540;-88
2022/11/04 11:47:58;;;;;;;6.23;2.70;;;16.10;59.00;;;;;;5091272;28;20456;-89
2022/11/04 11:50:30;;;;;;;3.63;1.53;;;16.10;59.40;;;;;;5091953;28;20474;-89
2022/11/04 11:53:18;;;;;;;4.90;2.47;;;16.30;58.90;;;;;;5066192;28;20463;-89
2022/11/04 11:55:51;;;;;;;3.70;2.30;;;16.40;58.40;;;;;;5098641;28;20520;-89
2022/11/04 11:58:26;;;;;;;2.17;1.60;;;16.20;57.80;;;;;;5078134;28;20450;-89
2022/11/04 12:01:01;;;;;;;3.00;1.67;;;16.40;58.20;;;;;;5093682;28;20477;-90
2022/11/04 12:03:34;;;;;;;1.80;1.50;;;16.40;57.70;;;;;;5060214;28;21231;-89
2022/11/04 12:06:20;;;;;;;2.90;1.77;;;16.40;57.50;;;;;;5093985;28;20477;-89
2022/11/04 12:09:04;;;;;;;5.70;4.70;;;16.30;57.10;;;;;;5093843;28;21916;-89
2022/11/04 12:11:41;;;;;;;1.70;1.60;;;16.30;57.90;;;;;;5073725;28;20471;-88
2022/11/04 12:14:14;;;;;;;2.53;1.90;;;16.40;57.30;;;;;;5082187;28;20440;-88
2022/11/04 12:16:51;;;;;;;1.50;1.40;;;16.20;56.90;;;;;;5083202;28;20427;-88
2022/11/04 12:19:31;;;;;;;4.53;2.33;;;16.10;57.60;;;;;;5091337;28;20485;-90
2022/11/04 12:22:02;;;;;;;4.30;1.63;;;16.10;58.20;;;;;;5078399;28;20981;-90
2022/11/04 12:24:40;;;;;;;3.07;1.40;;;16.10;57.50;;;;;;5094346;28;20494;-91
2022/11/04 12:27:13;;;;;;;5.50;3.90;;;16.30;57.10;;;;;;5100105;28;20451;-88
2022/11/04 12:30:02;;;;;;;3.40;2.80;;;16.50;57.00;;;;;;5094377;28;20562;-90
2022/11/04 12:32:40;;;;;;;7.50;3.90;;;16.60;55.80;;;;;;5063505;28;20451;-89
2022/11/04 12:35:23;;;;;;;21.87;17.60;;;16.70;56.90;;;;;;5093435;28;20447;-89
2022/11/04 12:38:03;;;;;;;7.50;3.80;;;16.60;57.10;;;;;;5092581;28;20441;-90
2022/11/04 12:40:40;;;;;;;4.90;2.07;;;16.50;56.70;;;;;;5061988;28;20539;-90
2022/11/04 12:43:18;;;;;;;12.57;7.00;;;16.40;56.60;;;;;;5066475;28;20603;-88
2022/11/04 12:46:00;;;;;;;2.47;2.10;;;16.50;57.80;;;;;;5089878;28;20475;-89
2022/11/04 12:48:51;;;;;;;17.90;10.60;;;16.90;57.30;;;;;;5093463;28;20815;-89
2022/11/04 12:51:28;;;;;;;3.93;1.87;;;16.90;56.40;;;;;;5094687;28;20452;-88
2022/11/04 12:54:13;;;;;;;5.70;4.17;;;16.90;56.60;;;;;;5077407;28;20526;-89
2022/11/04 12:56:41;;;;;;;9.20;7.63;;;16.90;56.80;;;;;;5093818;28;20526;-90
2022/11/04 12:59:34;;;;;;;5.70;5.10;;;16.80;56.80;;;;;;5089025;28;20495;-88
2022/11/04 13:02:13;;;;;;;2.63;1.57;;;16.60;57.10;;;;;;5093656;28;20447;-90
2022/11/04 13:04:50;;;;;;;1.63;1.30;;;16.70;56.50;;;;;;5077367;28;20471;-89
2022/11/04 13:07:22;;;;;;;2.60;1.70;;;16.90;56.60;;;;;;5092932;28;20447;-88
2022/11/04 13:09:53;;;;;;;1.30;1.20;;;17.10;55.90;;;;;;5092495;28;20540;-88
2022/11/04 13:12:23;;;;;;;5.80;1.53;;;17.40;55.70;;;;;;5082194;28;20451;-89
2022/11/04 13:14:53;;;;;;;5.67;2.10;;;17.50;54.80;;;;;;5102416;28;20513;-89
2022/11/04 13:17:26;;;;;;;1.93;1.77;;;17.60;54.80;;;;;;5085903;28;20547;-90
2022/11/04 13:20:00;;;;;;;3.87;1.50;;;17.60;53.00;;;;;;5091114;28;20466;-90
2022/11/04 13:22:32;;;;;;;4.63;1.80;;;17.30;54.00;;;;;;5067550;28;20528;-88
2022/11/04 13:25:03;;;;;;;3.03;1.70;;;17.10;54.30;;;;;;5095312;28;20463;-89
2022/11/04 13:27:35;;;;;;;5.27;2.60;;;17.40;54.80;;;;;;5094350;28;20560;-89
2022/11/04 13:30:16;;;;;;;4.83;1.50;;;17.40;54.50;;;;;;5085335;28;20479;-89
2022/11/04 13:32:51;;;;;;;7.57;3.10;;;17.10;54.00;;;;;;5095269;28;20493;-88
2022/11/04 13:35:28;;;;;;;9.97;1.87;;;17.20;55.60;;;;;;5064347;28;20456;-88